sensor_id;sensor_type;location;lat;lon;timestamp;P1;durP1;ratioP1;P2;durP2;ratioP2
65871;SDS011;52653;50.080;21.992;2022-11-30T00:02:21;18.60;;;13.30;;
65871;SDS011;52653;50.080;21.992;2022-11-30T00:04:55;18.30;;;13.00;;
65871;SDS011;52653;50.080;21.992;2022-11-30T00:07:26;19.60;;;12.70;;
65871;SDS011;52653;50.080;21.992;2022-11-30T00:09:58;20.10;;;13.60;;
65871;SDS011;52653;50.080;21.992;2022-11-30T00:12:30;18.70;;;12.70;;
65871;SDS011;52653;50.080;21.992;2022-11-30T00:15:03;17.30;;;12.30;;
65871;SDS011;52653;50.080;21.992;2022-11-30T00:17:35;17.00;;;12.30;;
65871;SDS011;52653;50.080;21.992;2022-11-30T00:20:07;21.40;;;13.10;;
65871;SDS011;52653;50.080;21.992;2022-11-30T00:22:41;16.70;;;11.70;;
65871;SDS011;52653;50.080;21.992;2022-11-30T00:25:13;15.70;;;11.50;;
65871;SDS011;52653;50.080;21.992;2022-11-30T00:27:44;17.80;;;12.40;;
65871;SDS011;52653;50.080;21.992;2022-11-30T00:30:16;16.00;;;11.70;;
65871;SDS011;52653;50.080;21.992;2022-11-30T00:32:48;16.60;;;12.30;;
65871;SDS011;52653;50.080;21.992;2022-11-30T00:35:25;17.50;;;12.50;;
65871;SDS011;52653;50.080;21.992;2022-11-30T00:37:57;17.80;;;12.80;;
65871;SDS011;52653;50.080;21.992;2022-11-30T00:40:30;17.40;;;12.40;;
65871;SDS011;52653;50.080;21.992;2022-11-30T00:43:02;15.20;;;11.60;;
65871;SDS011;52653;50.080;21.992;2022-11-30T00:45:33;15.30;;;11.30;;
65871;SDS011;52653;50.080;21.992;2022-11-30T00:48:05;15.40;;;11.10;;
65871;SDS011;52653;50.080;21.992;2022-11-30T00:50:37;13.60;;;9.80;;
65871;SDS011;52653;50.080;21.992;2022-11-30T00:53:09;14.40;;;10.30;;
65871;SDS011;52653;50.080;21.992;2022-11-30T00:55:42;13.60;;;10.40;;
65871;SDS011;52653;50.080;21.992;2022-11-30T00:58:14;15.60;;;11.20;;
65871;SDS011;52653;50.080;21.992;2022-11-30T01:00:46;15.70;;;11.50;;
65871;SDS011;52653;50.080;21.992;2022-11-30T01:03:18;16.10;;;11.40;;
65871;SDS011;52653;50.080;21.992;2022-11-30T01:05:50;14.60;;;11.20;;
65871;SDS011;52653;50.080;21.992;2022-11-30T01:08:21;14.80;;;10.10;;
65871;SDS011;52653;50.080;21.992;2022-11-30T01:10:54;14.10;;;9.90;;
65871;SDS011;52653;50.080;21.992;2022-11-30T01:13:33;14.40;;;10.40;;
65871;SDS011;52653;50.080;21.992;2022-11-30T01:16:10;13.80;;;9.70;;
65871;SDS011;52653;50.080;21.992;2022-11-30T01:18:45;14.70;;;10.50;;
65871;SDS011;52653;50.080;21.992;2022-11-30T01:21:17;14.00;;;11.00;;
65871;SDS011;52653;50.080;21.992;2022-11-30T01:23:51;16.00;;;11.80;;
65871;SDS011;52653;50.080;21.992;2022-11-30T01:26:23;15.70;;;11.60;;
65871;SDS011;52653;50.080;21.992;2022-11-30T01:28:55;17.40;;;12.20;;
65871;SDS011;52653;50.080;21.992;2022-11-30T01:31:30;17.80;;;12.20;;
65871;SDS011;52653;50.080;21.992;2022-11-30T01:34:02;15.80;;;11.40;;
65871;SDS011;52653;50.080;21.992;2022-11-30T01:36:34;14.70;;;11.10;;
65871;SDS011;52653;50.080;21.992;2022-11-30T01:39:07;13.80;;;10.20;;
65871;SDS011;52653;50.080;21.992;2022-11-30T01:41:39;14.30;;;10.90;;
65871;SDS011;52653;50.080;21.992;2022-11-30T01:47:21;16.40;;;11.10;;
65871;SDS011;52653;50.080;21.992;2022-11-30T01:50:00;13.20;;;9.90;;
65871;SDS011;52653;50.080;21.992;2022-11-30T01:52:36;13.00;;;9.70;;
65871;SDS011;52653;50.080;21.992;2022-11-30T01:55:20;14.60;;;11.20;;
65871;SDS011;52653;50.080;21.992;2022-11-30T01:57:55;15.50;;;10.70;;
65871;SDS011;52653;50.080;21.992;2022-11-30T02:00:30;16.30;;;11.20;;
65871;SDS011;52653;50.080;21.992;2022-11-30T02:03:03;13.70;;;9.80;;
65871;SDS011;52653;50.080;21.992;2022-11-30T02:05:39;13.40;;;9.40;;
65871;SDS011;52653;50.080;21.992;2022-11-30T02:08:11;12.90;;;9.40;;
65871;SDS011;52653;50.080;21.992;2022-11-30T02:10:50;13.40;;;8.60;;
65871;SDS011;52653;50.080;21.992;2022-11-30T02:13:29;11.30;;;8.40;;
65871;SDS011;52653;50.080;21.992;2022-11-30T02:16:10;12.00;;;9.10;;
65871;SDS011;52653;50.080;21.992;2022-11-30T02:18:53;12.50;;;9.10;;
65871;SDS011;52653;50.080;21.992;2022-11-30T02:21:36;12.70;;;8.90;;
65871;SDS011;52653;50.080;21.992;2022-11-30T02:24:20;13.70;;;9.60;;
65871;SDS011;52653;50.080;21.992;2022-11-30T02:27:12;14.10;;;10.00;;
65871;SDS011;52653;50.080;21.992;2022-11-30T02:29:52;13.30;;;9.70;;
65871;SDS011;52653;50.080;21.992;2022-11-30T02:32:31;13.80;;;9.00;;
65871;SDS011;52653;50.080;21.992;2022-11-30T02:35:05;12.80;;;9.00;;
65871;SDS011;52653;50.080;21.992;2022-11-30T02:37:41;13.80;;;9.50;;
65871;SDS011;52653;50.080;21.992;2022-11-30T02:40:16;12.10;;;8.50;;
65871;SDS011;52653;50.080;21.992;2022-11-30T02:42:51;11.90;;;8.70;;
65871;SDS011;52653;50.080;21.992;2022-11-30T02:45:27;13.70;;;9.60;;
65871;SDS011;52653;50.080;21.992;2022-11-30T02:48:03;13.70;;;9.80;;
65871;SDS011;52653;50.080;21.992;2022-11-30T02:50:40;13.40;;;9.30;;
65871;SDS011;52653;50.080;21.992;2022-11-30T02:53:17;12.70;;;9.70;;
65871;SDS011;52653;50.080;21.992;2022-11-30T02:55:50;13.40;;;9.80;;
65871;SDS011;52653;50.080;21.992;2022-11-30T02:58:22;13.90;;;9.70;;
65871;SDS011;52653;50.080;21.992;2022-11-30T03:00:54;12.70;;;9.10;;
65871;SDS011;52653;50.080;21.992;2022-11-30T03:03:26;13.10;;;9.20;;
65871;SDS011;52653;50.080;21.992;2022-11-30T03:05:58;12.70;;;8.40;;
65871;SDS011;52653;50.080;21.992;2022-11-30T03:08:30;12.30;;;8.40;;
65871;SDS011;52653;50.080;21.992;2022-11-30T03:11:02;12.80;;;9.30;;
65871;SDS011;52653;50.080;21.992;2022-11-30T03:13:34;12.60;;;8.90;;
65871;SDS011;52653;50.080;21.992;2022-11-30T03:16:07;12.20;;;9.00;;
65871;SDS011;52653;50.080;21.992;2022-11-30T03:18:40;14.10;;;9.80;;
65871;SDS011;52653;50.080;21.992;2022-11-30T03:21:12;12.90;;;9.60;;
65871;SDS011;52653;50.080;21.992;2022-11-30T03:23:44;12.70;;;10.00;;
65871;SDS011;52653;50.080;21.992;2022-11-30T03:26:15;15.10;;;10.20;;
65871;SDS011;52653;50.080;21.992;2022-11-30T03:28:47;14.20;;;10.20;;
65871;SDS011;52653;50.080;21.992;2022-11-30T03:31:19;12.90;;;9.20;;
65871;SDS011;52653;50.080;21.992;2022-11-30T03:33:51;12.10;;;9.10;;
65871;SDS011;52653;50.080;21.992;2022-11-30T03:36:23;13.40;;;10.00;;
65871;SDS011;52653;50.080;21.992;2022-11-30T03:38:55;14.40;;;9.90;;
65871;SDS011;52653;50.080;21.992;2022-11-30T03:41:26;13.80;;;10.30;;
65871;SDS011;52653;50.080;21.992;2022-11-30T03:43:58;15.10;;;10.30;;
65871;SDS011;52653;50.080;21.992;2022-11-30T03:46:30;15.20;;;11.10;;
65871;SDS011;52653;50.080;21.992;2022-11-30T03:49:02;16.50;;;11.60;;
65871;SDS011;52653;50.080;21.992;2022-11-30T03:51:34;17.10;;;11.20;;
65871;SDS011;52653;50.080;21.992;2022-11-30T03:54:06;16.40;;;10.40;;
65871;SDS011;52653;50.080;21.992;2022-11-30T03:56:38;13.30;;;9.50;;
65871;SDS011;52653;50.080;21.992;2022-11-30T03:59:09;14.20;;;9.50;;
65871;SDS011;52653;50.080;21.992;2022-11-30T04:01:41;14.80;;;10.00;;
65871;SDS011;52653;50.080;21.992;2022-11-30T04:04:13;13.90;;;9.10;;
65871;SDS011;52653;50.080;21.992;2022-11-30T04:06:45;16.40;;;10.60;;
65871;SDS011;52653;50.080;21.992;2022-11-30T04:09:17;15.80;;;10.80;;
65871;SDS011;52653;50.080;21.992;2022-11-30T04:11:48;16.70;;;10.90;;
65871;SDS011;52653;50.080;21.992;2022-11-30T04:14:21;15.50;;;11.10;;
65871;SDS011;52653;50.080;21.992;2022-11-30T04:16:52;16.30;;;11.30;;
65871;SDS011;52653;50.080;21.992;2022-11-30T04:19:24;17.50;;;11.60;;
65871;SDS011;52653;50.080;21.992;2022-11-30T04:21:56;18.60;;;11.60;;
65871;SDS011;52653;50.080;21.992;2022-11-30T04:24:28;15.80;;;10.60;;
65871;SDS011;52653;50.080;21.992;2022-11-30T04:27:00;17.90;;;11.30;;
65871;SDS011;52653;50.080;21.992;2022-11-30T04:29:32;17.00;;;11.20;;
65871;SDS011;52653;50.080;21.992;2022-11-30T04:32:04;16.90;;;10.90;;
65871;SDS011;52653;50.080;21.992;2022-11-30T04:34:36;16.80;;;12.10;;
65871;SDS011;52653;50.080;21.992;2022-11-30T04:37:08;17.10;;;12.10;;
65871;SDS011;52653;50.080;21.992;2022-11-30T04:39:39;16.90;;;11.50;;
65871;SDS011;52653;50.080;21.992;2022-11-30T04:42:11;16.90;;;11.90;;
65871;SDS011;52653;50.080;21.992;2022-11-30T04:44:43;15.50;;;11.70;;
65871;SDS011;52653;50.080;21.992;2022-11-30T04:47:15;16.30;;;11.80;;
65871;SDS011;52653;50.080;21.992;2022-11-30T04:49:47;15.90;;;11.20;;
65871;SDS011;52653;50.080;21.992;2022-11-30T04:52:19;17.20;;;11.10;;
65871;SDS011;52653;50.080;21.992;2022-11-30T04:54:51;15.60;;;11.40;;
65871;SDS011;52653;50.080;21.992;2022-11-30T04:57:24;18.20;;;11.90;;
65871;SDS011;52653;50.080;21.992;2022-11-30T04:59:56;15.20;;;9.90;;
65871;SDS011;52653;50.080;21.992;2022-11-30T05:02:29;16.30;;;11.30;;
65871;SDS011;52653;50.080;21.992;2022-11-30T05:05:01;16.40;;;11.40;;
65871;SDS011;52653;50.080;21.992;2022-11-30T05:07:32;17.70;;;12.00;;
65871;SDS011;52653;50.080;21.992;2022-11-30T05:10:05;17.30;;;11.50;;
65871;SDS011;52653;50.080;21.992;2022-11-30T05:12:38;15.60;;;10.90;;
65871;SDS011;52653;50.080;21.992;2022-11-30T05:15:11;17.80;;;12.30;;
65871;SDS011;52653;50.080;21.992;2022-11-30T05:17:42;17.90;;;12.40;;
65871;SDS011;52653;50.080;21.992;2022-11-30T05:20:14;20.90;;;13.50;;
65871;SDS011;52653;50.080;21.992;2022-11-30T05:22:46;19.60;;;12.50;;
65871;SDS011;52653;50.080;21.992;2022-11-30T05:25:19;16.90;;;11.50;;
65871;SDS011;52653;50.080;21.992;2022-11-30T05:27:50;18.40;;;11.70;;
65871;SDS011;52653;50.080;21.992;2022-11-30T05:30:22;15.70;;;11.40;;
65871;SDS011;52653;50.080;21.992;2022-11-30T05:32:54;21.30;;;13.30;;
65871;SDS011;52653;50.080;21.992;2022-11-30T05:35:26;22.10;;;14.20;;
65871;SDS011;52653;50.080;21.992;2022-11-30T05:37:58;20.70;;;13.60;;
65871;SDS011;52653;50.080;21.992;2022-11-30T05:40:30;22.40;;;13.80;;
65871;SDS011;52653;50.080;21.992;2022-11-30T05:43:02;26.00;;;15.30;;
65871;SDS011;52653;50.080;21.992;2022-11-30T05:45:34;22.30;;;14.50;;
65871;SDS011;52653;50.080;21.992;2022-11-30T05:48:07;25.70;;;14.30;;
65871;SDS011;52653;50.080;21.992;2022-11-30T05:50:39;22.60;;;14.80;;
65871;SDS011;52653;50.080;21.992;2022-11-30T05:53:11;19.20;;;13.00;;
65871;SDS011;52653;50.080;21.992;2022-11-30T05:55:43;22.80;;;13.80;;
65871;SDS011;52653;50.080;21.992;2022-11-30T05:58:15;21.10;;;12.80;;
65871;SDS011;52653;50.080;21.992;2022-11-30T06:00:47;20.80;;;14.40;;
65871;SDS011;52653;50.080;21.992;2022-11-30T06:03:19;22.60;;;14.90;;
65871;SDS011;52653;50.080;21.992;2022-11-30T06:05:51;24.10;;;14.40;;
65871;SDS011;52653;50.080;21.992;2022-11-30T06:08:23;23.60;;;15.20;;
65871;SDS011;52653;50.080;21.992;2022-11-30T06:10:58;23.20;;;15.80;;
65871;SDS011;52653;50.080;21.992;2022-11-30T06:13:30;25.20;;;15.70;;
65871;SDS011;52653;50.080;21.992;2022-11-30T06:16:02;24.80;;;16.50;;
65871;SDS011;52653;50.080;21.992;2022-11-30T06:18:36;24.80;;;16.50;;
65871;SDS011;52653;50.080;21.992;2022-11-30T06:21:08;22.50;;;14.70;;
65871;SDS011;52653;50.080;21.992;2022-11-30T06:23:40;20.90;;;13.40;;
65871;SDS011;52653;50.080;21.992;2022-11-30T06:26:13;21.60;;;13.40;;
65871;SDS011;52653;50.080;21.992;2022-11-30T06:28:45;25.90;;;14.60;;
65871;SDS011;52653;50.080;21.992;2022-11-30T06:31:17;21.90;;;14.80;;
65871;SDS011;52653;50.080;21.992;2022-11-30T06:33:48;22.40;;;15.10;;
65871;SDS011;52653;50.080;21.992;2022-11-30T06:36:22;24.90;;;15.40;;
65871;SDS011;52653;50.080;21.992;2022-11-30T06:39:03;22.10;;;14.80;;
65871;SDS011;52653;50.080;21.992;2022-11-30T06:41:36;22.90;;;14.80;;
65871;SDS011;52653;50.080;21.992;2022-11-30T06:44:08;25.50;;;14.80;;
65871;SDS011;52653;50.080;21.992;2022-11-30T06:46:40;21.10;;;13.60;;
65871;SDS011;52653;50.080;21.992;2022-11-30T06:49:12;22.10;;;14.10;;
65871;SDS011;52653;50.080;21.992;2022-11-30T06:51:44;20.60;;;12.60;;
65871;SDS011;52653;50.080;21.992;2022-11-30T06:54:16;19.90;;;13.40;;
65871;SDS011;52653;50.080;21.992;2022-11-30T06:56:48;20.10;;;12.80;;
65871;SDS011;52653;50.080;21.992;2022-11-30T06:59:20;20.90;;;12.80;;
65871;SDS011;52653;50.080;21.992;2022-11-30T07:01:52;23.80;;;13.10;;
65871;SDS011;52653;50.080;21.992;2022-11-30T07:04:23;17.90;;;13.10;;
65871;SDS011;52653;50.080;21.992;2022-11-30T07:06:55;21.70;;;12.90;;
65871;SDS011;52653;50.080;21.992;2022-11-30T07:09:27;17.40;;;12.60;;
65871;SDS011;52653;50.080;21.992;2022-11-30T07:12:00;17.10;;;11.10;;
65871;SDS011;52653;50.080;21.992;2022-11-30T07:14:32;18.00;;;10.90;;
65871;SDS011;52653;50.080;21.992;2022-11-30T07:17:04;17.80;;;11.80;;
65871;SDS011;52653;50.080;21.992;2022-11-30T07:19:36;16.70;;;11.20;;
65871;SDS011;52653;50.080;21.992;2022-11-30T07:22:08;14.60;;;9.50;;
65871;SDS011;52653;50.080;21.992;2022-11-30T07:24:40;15.30;;;9.90;;
65871;SDS011;52653;50.080;21.992;2022-11-30T07:27:31;17.50;;;11.40;;
65871;SDS011;52653;50.080;21.992;2022-11-30T07:30:04;17.40;;;11.50;;
65871;SDS011;52653;50.080;21.992;2022-11-30T07:32:38;17.50;;;11.30;;
65871;SDS011;52653;50.080;21.992;2022-11-30T07:35:10;16.00;;;10.70;;
65871;SDS011;52653;50.080;21.992;2022-11-30T07:37:42;18.30;;;12.20;;
65871;SDS011;52653;50.080;21.992;2022-11-30T07:40:14;16.10;;;11.30;;
65871;SDS011;52653;50.080;21.992;2022-11-30T07:42:48;17.70;;;11.50;;
65871;SDS011;52653;50.080;21.992;2022-11-30T07:45:25;14.10;;;10.60;;
65871;SDS011;52653;50.080;21.992;2022-11-30T07:47:58;17.70;;;10.60;;
65871;SDS011;52653;50.080;21.992;2022-11-30T07:50:30;16.20;;;9.80;;
65871;SDS011;52653;50.080;21.992;2022-11-30T07:53:02;16.20;;;11.40;;
65871;SDS011;52653;50.080;21.992;2022-11-30T07:55:34;17.10;;;11.80;;
65871;SDS011;52653;50.080;21.992;2022-11-30T07:58:06;18.50;;;11.70;;
65871;SDS011;52653;50.080;21.992;2022-11-30T08:00:45;19.70;;;13.10;;
65871;SDS011;52653;50.080;21.992;2022-11-30T08:03:17;17.80;;;12.70;;
65871;SDS011;52653;50.080;21.992;2022-11-30T08:05:49;19.00;;;13.30;;
65871;SDS011;52653;50.080;21.992;2022-11-30T08:08:21;19.00;;;12.10;;
65871;SDS011;52653;50.080;21.992;2022-11-30T08:10:56;17.30;;;11.30;;
65871;SDS011;52653;50.080;21.992;2022-11-30T08:13:28;17.90;;;11.80;;
65871;SDS011;52653;50.080;21.992;2022-11-30T08:16:01;16.80;;;11.60;;
65871;SDS011;52653;50.080;21.992;2022-11-30T08:18:34;16.40;;;11.20;;
65871;SDS011;52653;50.080;21.992;2022-11-30T08:21:07;17.00;;;11.30;;
65871;SDS011;52653;50.080;21.992;2022-11-30T08:23:42;16.80;;;11.80;;
65871;SDS011;52653;50.080;21.992;2022-11-30T08:26:15;18.70;;;12.90;;
65871;SDS011;52653;50.080;21.992;2022-11-30T08:28:49;18.10;;;12.90;;
65871;SDS011;52653;50.080;21.992;2022-11-30T08:31:23;19.70;;;13.80;;
65871;SDS011;52653;50.080;21.992;2022-11-30T08:33:57;21.50;;;14.00;;
65871;SDS011;52653;50.080;21.992;2022-11-30T08:36:31;21.70;;;14.50;;
65871;SDS011;52653;50.080;21.992;2022-11-30T08:39:05;22.70;;;14.00;;
65871;SDS011;52653;50.080;21.992;2022-11-30T08:41:38;20.40;;;13.80;;
65871;SDS011;52653;50.080;21.992;2022-11-30T08:44:09;18.10;;;12.30;;
65871;SDS011;52653;50.080;21.992;2022-11-30T08:46:41;20.50;;;12.60;;
65871;SDS011;52653;50.080;21.992;2022-11-30T08:49:21;20.10;;;12.40;;
65871;SDS011;52653;50.080;21.992;2022-11-30T08:51:54;18.00;;;12.40;;
65871;SDS011;52653;50.080;21.992;2022-11-30T08:54:47;18.80;;;12.80;;
65871;SDS011;52653;50.080;21.992;2022-11-30T08:57:19;21.10;;;14.80;;
65871;SDS011;52653;50.080;21.992;2022-11-30T08:59:52;21.80;;;14.20;;
65871;SDS011;52653;50.080;21.992;2022-11-30T09:02:24;21.30;;;14.20;;
65871;SDS011;52653;50.080;21.992;2022-11-30T09:04:57;21.70;;;15.30;;
65871;SDS011;52653;50.080;21.992;2022-11-30T09:07:29;23.40;;;15.30;;
65871;SDS011;52653;50.080;21.992;2022-11-30T09:10:01;21.90;;;13.70;;
65871;SDS011;52653;50.080;21.992;2022-11-30T09:12:35;21.80;;;13.70;;
65871;SDS011;52653;50.080;21.992;2022-11-30T09:15:08;20.30;;;13.70;;
65871;SDS011;52653;50.080;21.992;2022-11-30T09:17:40;23.40;;;14.60;;
65871;SDS011;52653;50.080;21.992;2022-11-30T09:20:13;20.50;;;13.40;;
65871;SDS011;52653;50.080;21.992;2022-11-30T09:22:45;20.40;;;14.10;;
65871;SDS011;52653;50.080;21.992;2022-11-30T09:25:17;21.00;;;14.20;;
65871;SDS011;52653;50.080;21.992;2022-11-30T09:27:50;21.80;;;14.70;;
65871;SDS011;52653;50.080;21.992;2022-11-30T09:30:22;22.30;;;15.30;;
65871;SDS011;52653;50.080;21.992;2022-11-30T09:32:54;22.60;;;15.40;;
65871;SDS011;52653;50.080;21.992;2022-11-30T09:35:29;23.60;;;16.20;;
65871;SDS011;52653;50.080;21.992;2022-11-30T09:38:00;23.00;;;14.70;;
65871;SDS011;52653;50.080;21.992;2022-11-30T09:40:33;19.70;;;13.10;;
65871;SDS011;52653;50.080;21.992;2022-11-30T09:43:09;19.50;;;12.80;;
65871;SDS011;52653;50.080;21.992;2022-11-30T09:45:55;18.00;;;11.80;;
65871;SDS011;52653;50.080;21.992;2022-11-30T09:48:35;17.90;;;12.60;;
65871;SDS011;52653;50.080;21.992;2022-11-30T09:51:21;17.40;;;12.50;;
65871;SDS011;52653;50.080;21.992;2022-11-30T09:53:57;19.00;;;12.70;;
65871;SDS011;52653;50.080;21.992;2022-11-30T09:56:37;22.40;;;13.60;;
65871;SDS011;52653;50.080;21.992;2022-11-30T09:59:15;20.10;;;14.30;;
65871;SDS011;52653;50.080;21.992;2022-11-30T10:01:50;21.60;;;15.20;;
65871;SDS011;52653;50.080;21.992;2022-11-30T10:04:25;21.90;;;15.30;;
65871;SDS011;52653;50.080;21.992;2022-11-30T10:07:01;22.70;;;14.40;;
65871;SDS011;52653;50.080;21.992;2022-11-30T10:09:41;24.60;;;14.80;;
65871;SDS011;52653;50.080;21.992;2022-11-30T10:12:41;21.70;;;13.60;;
65871;SDS011;52653;50.080;21.992;2022-11-30T10:15:22;19.30;;;12.20;;
65871;SDS011;52653;50.080;21.992;2022-11-30T10:20:40;18.50;;;11.60;;
65871;SDS011;52653;50.080;21.992;2022-11-30T10:23:24;20.20;;;12.30;;
65871;SDS011;52653;50.080;21.992;2022-11-30T10:26:23;18.40;;;12.80;;
65871;SDS011;52653;50.080;21.992;2022-11-30T10:29:02;18.10;;;12.20;;
65871;SDS011;52653;50.080;21.992;2022-11-30T10:31:45;21.20;;;13.70;;
65871;SDS011;52653;50.080;21.992;2022-11-30T10:34:21;21.80;;;14.00;;
65871;SDS011;52653;50.080;21.992;2022-11-30T10:37:00;20.40;;;13.30;;
65871;SDS011;52653;50.080;21.992;2022-11-30T10:39:41;19.00;;;12.10;;
65871;SDS011;52653;50.080;21.992;2022-11-30T10:42:25;18.40;;;11.70;;
65871;SDS011;52653;50.080;21.992;2022-11-30T10:45:03;16.50;;;11.10;;
65871;SDS011;52653;50.080;21.992;2022-11-30T10:47:40;18.00;;;11.80;;
65871;SDS011;52653;50.080;21.992;2022-11-30T10:50:16;20.10;;;12.70;;
65871;SDS011;52653;50.080;21.992;2022-11-30T10:52:50;19.40;;;13.40;;
65871;SDS011;52653;50.080;21.992;2022-11-30T10:55:25;21.40;;;14.10;;
65871;SDS011;52653;50.080;21.992;2022-11-30T10:58:01;22.50;;;13.60;;
65871;SDS011;52653;50.080;21.992;2022-11-30T11:00:40;19.10;;;12.00;;
65871;SDS011;52653;50.080;21.992;2022-11-30T11:03:23;15.70;;;10.20;;
65871;SDS011;52653;50.080;21.992;2022-11-30T11:06:06;16.30;;;10.70;;
65871;SDS011;52653;50.080;21.992;2022-11-30T11:08:43;16.20;;;9.80;;
65871;SDS011;52653;50.080;21.992;2022-11-30T11:11:28;17.50;;;11.30;;
65871;SDS011;52653;50.080;21.992;2022-11-30T11:14:11;16.60;;;11.90;;
65871;SDS011;52653;50.080;21.992;2022-11-30T11:16:51;18.90;;;12.50;;
65871;SDS011;52653;50.080;21.992;2022-11-30T11:19:29;16.50;;;11.20;;
65871;SDS011;52653;50.080;21.992;2022-11-30T11:22:04;21.50;;;14.90;;
65871;SDS011;52653;50.080;21.992;2022-11-30T11:24:45;21.30;;;15.20;;
65871;SDS011;52653;50.080;21.992;2022-11-30T11:27:24;22.90;;;16.40;;
65871;SDS011;52653;50.080;21.992;2022-11-30T11:29:59;26.00;;;16.80;;
65871;SDS011;52653;50.080;21.992;2022-11-30T11:32:33;22.10;;;15.60;;
65871;SDS011;52653;50.080;21.992;2022-11-30T11:35:11;18.50;;;13.10;;
65871;SDS011;52653;50.080;21.992;2022-11-30T11:38:07;20.20;;;12.70;;
65871;SDS011;52653;50.080;21.992;2022-11-30T11:40:52;21.60;;;14.20;;
65871;SDS011;52653;50.080;21.992;2022-11-30T11:43:27;20.00;;;12.80;;
65871;SDS011;52653;50.080;21.992;2022-11-30T11:46:02;19.80;;;13.00;;
65871;SDS011;52653;50.080;21.992;2022-11-30T11:48:44;20.10;;;13.40;;
65871;SDS011;52653;50.080;21.992;2022-11-30T11:51:18;20.80;;;13.00;;
65871;SDS011;52653;50.080;21.992;2022-11-30T11:54:01;19.40;;;13.10;;
65871;SDS011;52653;50.080;21.992;2022-11-30T11:56:39;19.00;;;11.90;;
65871;SDS011;52653;50.080;21.992;2022-11-30T11:59:14;15.90;;;11.30;;
65871;SDS011;52653;50.080;21.992;2022-11-30T12:01:56;18.80;;;11.80;;
65871;SDS011;52653;50.080;21.992;2022-11-30T12:04:45;18.70;;;11.70;;
65871;SDS011;52653;50.080;21.992;2022-11-30T12:07:32;19.80;;;13.40;;
65871;SDS011;52653;50.080;21.992;2022-11-30T12:10:16;19.90;;;12.60;;
65871;SDS011;52653;50.080;21.992;2022-11-30T12:13:17;19.40;;;13.20;;
65871;SDS011;52653;50.080;21.992;2022-11-30T12:15:56;21.80;;;13.10;;
65871;SDS011;52653;50.080;21.992;2022-11-30T12:18:37;19.80;;;13.70;;
65871;SDS011;52653;50.080;21.992;2022-11-30T12:21:19;19.50;;;13.00;;
65871;SDS011;52653;50.080;21.992;2022-11-30T12:24:04;21.10;;;13.00;;
65871;SDS011;52653;50.080;21.992;2022-11-30T12:27:05;19.50;;;12.30;;
65871;SDS011;52653;50.080;21.992;2022-11-30T12:29:52;18.30;;;12.10;;
65871;SDS011;52653;50.080;21.992;2022-11-30T12:32:37;17.10;;;11.60;;
65871;SDS011;52653;50.080;21.992;2022-11-30T12:35:27;19.10;;;12.20;;
65871;SDS011;52653;50.080;21.992;2022-11-30T12:38:09;20.70;;;13.40;;
65871;SDS011;52653;50.080;21.992;2022-11-30T12:40:50;21.60;;;14.20;;
65871;SDS011;52653;50.080;21.992;2022-11-30T12:43:31;21.60;;;13.70;;
65871;SDS011;52653;50.080;21.992;2022-11-30T12:46:14;22.90;;;14.40;;
65871;SDS011;52653;50.080;21.992;2022-11-30T12:48:58;23.80;;;14.60;;
65871;SDS011;52653;50.080;21.992;2022-11-30T12:51:49;23.50;;;13.50;;
65871;SDS011;52653;50.080;21.992;2022-11-30T12:54:28;19.50;;;12.60;;
65871;SDS011;52653;50.080;21.992;2022-11-30T12:57:12;19.80;;;12.50;;
65871;SDS011;52653;50.080;21.992;2022-11-30T12:59:51;15.70;;;10.30;;
65871;SDS011;52653;50.080;21.992;2022-11-30T13:02:44;20.70;;;13.20;;
65871;SDS011;52653;50.080;21.992;2022-11-30T13:05:38;19.10;;;12.20;;
65871;SDS011;52653;50.080;21.992;2022-11-30T13:08:17;20.30;;;13.80;;
65871;SDS011;52653;50.080;21.992;2022-11-30T13:10:54;23.80;;;15.00;;
65871;SDS011;52653;50.080;21.992;2022-11-30T13:13:29;23.50;;;14.70;;
65871;SDS011;52653;50.080;21.992;2022-11-30T13:16:03;26.70;;;15.40;;
65871;SDS011;52653;50.080;21.992;2022-11-30T13:18:37;22.50;;;14.60;;
65871;SDS011;52653;50.080;21.992;2022-11-30T13:21:12;20.00;;;12.50;;
65871;SDS011;52653;50.080;21.992;2022-11-30T13:23:53;19.60;;;12.90;;
65871;SDS011;52653;50.080;21.992;2022-11-30T13:26:35;24.30;;;14.20;;
65871;SDS011;52653;50.080;21.992;2022-11-30T13:29:16;24.60;;;15.50;;
65871;SDS011;52653;50.080;21.992;2022-11-30T13:31:58;21.60;;;14.70;;
65871;SDS011;52653;50.080;21.992;2022-11-30T13:38:03;29.70;;;18.30;;
65871;SDS011;52653;50.080;21.992;2022-11-30T13:41:03;30.00;;;18.10;;
65871;SDS011;52653;50.080;21.992;2022-11-30T13:43:39;26.70;;;16.10;;
65871;SDS011;52653;50.080;21.992;2022-11-30T13:46:17;23.00;;;14.80;;
65871;SDS011;52653;50.080;21.992;2022-11-30T13:51:47;20.90;;;12.90;;
65871;SDS011;52653;50.080;21.992;2022-11-30T13:54:40;18.40;;;11.50;;
65871;SDS011;52653;50.080;21.992;2022-11-30T13:57:18;18.30;;;11.50;;
65871;SDS011;52653;50.080;21.992;2022-11-30T14:00:45;18.50;;;11.50;;
65871;SDS011;52653;50.080;21.992;2022-11-30T14:03:29;18.10;;;11.10;;
65871;SDS011;52653;50.080;21.992;2022-11-30T14:06:46;16.50;;;10.00;;
65871;SDS011;52653;50.080;21.992;2022-11-30T14:09:12;17.70;;;11.20;;
65871;SDS011;52653;50.080;21.992;2022-11-30T14:11:45;16.90;;;10.20;;
65871;SDS011;52653;50.080;21.992;2022-11-30T14:17:20;17.50;;;11.10;;
65871;SDS011;52653;50.080;21.992;2022-11-30T14:19:56;17.60;;;11.00;;
65871;SDS011;52653;50.080;21.992;2022-11-30T14:22:31;16.30;;;10.20;;
65871;SDS011;52653;50.080;21.992;2022-11-30T14:25:05;17.90;;;11.70;;
65871;SDS011;52653;50.080;21.992;2022-11-30T14:27:44;16.30;;;10.20;;
65871;SDS011;52653;50.080;21.992;2022-11-30T14:30:17;19.00;;;12.10;;
65871;SDS011;52653;50.080;21.992;2022-11-30T14:32:51;19.40;;;11.80;;
65871;SDS011;52653;50.080;21.992;2022-11-30T14:35:29;19.90;;;12.80;;
65871;SDS011;52653;50.080;21.992;2022-11-30T14:38:04;19.10;;;12.20;;
65871;SDS011;52653;50.080;21.992;2022-11-30T14:40:49;20.60;;;13.10;;
65871;SDS011;52653;50.080;21.992;2022-11-30T14:43:22;24.40;;;14.20;;
65871;SDS011;52653;50.080;21.992;2022-11-30T14:45:58;22.90;;;14.40;;
65871;SDS011;52653;50.080;21.992;2022-11-30T14:48:36;23.00;;;14.90;;
65871;SDS011;52653;50.080;21.992;2022-11-30T14:51:09;26.80;;;16.20;;
65871;SDS011;52653;50.080;21.992;2022-11-30T14:53:42;25.40;;;16.80;;
65871;SDS011;52653;50.080;21.992;2022-11-30T14:56:39;25.80;;;16.60;;
65871;SDS011;52653;50.080;21.992;2022-11-30T14:59:25;26.40;;;16.70;;
65871;SDS011;52653;50.080;21.992;2022-11-30T15:02:10;25.70;;;16.70;;
65871;SDS011;52653;50.080;21.992;2022-11-30T15:04:48;26.50;;;17.30;;
65871;SDS011;52653;50.080;21.992;2022-11-30T15:07:22;28.80;;;18.20;;
65871;SDS011;52653;50.080;21.992;2022-11-30T15:09:58;28.20;;;17.80;;
65871;SDS011;52653;50.080;21.992;2022-11-30T15:15:16;27.40;;;18.10;;
65871;SDS011;52653;50.080;21.992;2022-11-30T15:17:51;30.70;;;17.90;;
65871;SDS011;52653;50.080;21.992;2022-11-30T15:20:25;33.50;;;20.40;;